Weather History for Salida, CO

Change the Weather History Date:

Tuesday, December 3, 2013

  Actual Average (KGUC) Record (KGUC)
Temperature  
Mean Temperature 38 °F -  
Max Temperature 42 °F 29 °F 46 °F (1998)
Min Temperature 34 °F 5 °F -25 °F (2004)
Degree Days  
Heating Degree Days 27    
Moisture  
Dew Point 22 °F    
Average Humidity 55    
Maximum Humidity 73    
Minimum Humidity 35    
Precipitation  
Precipitation 0.00 in - - ()
Sea Level Pressure  
Sea Level Pressure 29.68 in    
Wind  
Wind Speed 10 mph (SSW)    
Max Wind Speed 18 mph    
Max Gust Speed 25 mph    
Visibility 10 miles    
Events      
Averages and records for this station are not official NWS values.
T = Trace of Precipitation, MM = Missing Value Source: NWS Daily Summary

Daily Weather History Graph

Daily Weather History Graph

Search for Another Location

Airport:

Trip Planner

Search our weather history database for the weather conditions in past years. The results will help you decide how hot, cold, wet, or windy it might be!

Date:

Astronomy

Dec. 03, 2013 Rise Set
Actual Time 7:05 AM MST 4:43 PM MST
Civil Twilight 6:35 AM MST 5:12 PM MST
Nautical Twilight 6:02 AM MST 5:45 PM MST
Astronomical Twilight 5:30 AM MST 6:17 PM MST
Moon 7:37 AM MST (12/3) 5:49 PM MST (12/3)
Length of Visible Light 10h 36m
Length of Day
9h 38m
New Moon, 1% of the Moon is Illuminated
Dec 3
New Moon
Dec 9
First Quarter
Dec 17
Full
Dec 25
Last Quarter
Jan 1
New

Hourly Weather History & Observations

Time (MST) Temp. Windchill Dew Point Humidity Pressure Visibility Wind Dir Wind Speed Gust Speed Precip Events Conditions
12:15 AM 37.2 °F 33.6 °F 21.2 °F 52% 29.82 in 10.0 mi WNW 4.6 mph - N/A   Clear
12:35 AM 42.4 °F 34.1 °F 16.7 °F 35% 29.80 in 10.0 mi West 18.4 mph 24.2 mph N/A   Clear
12:55 AM 42.4 °F 34.7 °F 17.2 °F 36% 29.80 in 10.0 mi WSW 16.1 mph 25.3 mph N/A   Clear
1:15 AM 41.4 °F 33.3 °F 18.1 °F 39% 29.80 in 10.0 mi WSW 16.1 mph 23.0 mph N/A   Clear
1:35 AM 41.2 °F 33.7 °F 18.3 °F 40% 29.80 in 10.0 mi WSW 13.8 mph 19.6 mph N/A   Clear
1:55 AM 37.6 °F 30.0 °F 20.1 °F 49% 29.80 in 10.0 mi SW 11.5 mph 18.4 mph N/A   Clear
2:15 AM 37.9 °F 32.1 °F 20.1 °F 49% 29.79 in 10.0 mi WSW 8.1 mph - N/A   Clear
2:35 AM 38.3 °F 30.9 °F 19.4 °F 47% 29.79 in 10.0 mi SW 11.5 mph 19.6 mph N/A   Clear
2:55 AM 36.7 °F 30.5 °F 19.4 °F 50% 29.78 in 10.0 mi SSW 8.1 mph 16.1 mph N/A   Clear
3:15 AM 36.7 °F 27.6 °F 19.2 °F 49% 29.78 in 10.0 mi SSW 15.0 mph 20.7 mph N/A   Clear
3:35 AM 36.3 °F 28.4 °F 18.9 °F 49% 29.77 in 10.0 mi SSW 11.5 mph 20.7 mph N/A   Clear
3:55 AM 35.8 °F 28.8 °F 19.2 °F 51% 29.76 in 10.0 mi SW 9.2 mph - N/A   Clear
4:15 AM 36.5 °F 29.2 °F 18.7 °F 49% 29.75 in 10.0 mi SW 10.4 mph 17.3 mph N/A   Clear
4:35 AM 35.1 °F 27.4 °F 18.5 °F 51% 29.75 in 10.0 mi WSW 10.4 mph 21.9 mph N/A   Clear
4:55 AM 34.7 °F 24.0 °F 18.0 °F 51% 29.75 in 10.0 mi SW 18.4 mph 21.9 mph N/A   Clear
5:15 AM 34.3 °F 25.0 °F 17.8 °F 51% 29.75 in 10.0 mi WSW 13.8 mph 19.6 mph N/A   Mostly Cloudy
5:35 AM 34.5 °F 24.1 °F 18.0 °F 51% 29.73 in 10.0 mi SW 17.3 mph 20.7 mph N/A   Mostly Cloudy
5:55 AM 34.9 °F 27.1 °F 17.4 °F 49% 29.73 in 10.0 mi SW 10.4 mph 20.7 mph N/A   Clear
6:15 AM 34.7 °F 26.4 °F 17.4 °F 49% 29.73 in 10.0 mi SW 11.5 mph 24.2 mph N/A   Mostly Cloudy
6:35 AM 34.3 °F 24.2 °F 17.8 °F 51% 29.74 in 10.0 mi SW 16.1 mph 24.2 mph N/A   Overcast
6:55 AM 34.9 °F 26.2 °F 17.6 °F 49% 29.74 in 10.0 mi SSW 12.7 mph 19.6 mph N/A   Overcast
7:15 AM 35.6 °F 29.2 °F 17.6 °F 48% 29.73 in 10.0 mi SSW 8.1 mph 18.4 mph N/A   Overcast
7:35 AM 35.6 °F 28.0 °F 18.1 °F 49% 29.73 in 10.0 mi SSW 10.4 mph - N/A   Overcast
7:55 AM 35.6 °F 29.9 °F 18.5 °F 50% 29.74 in 10.0 mi WSW 6.9 mph - N/A   Overcast
8:15 AM 36.0 °F 28.0 °F 18.9 °F 50% 29.74 in 10.0 mi SSW 11.5 mph 19.6 mph N/A   Overcast
8:35 AM 35.6 °F 31.7 °F 19.0 °F 51% 29.73 in 10.0 mi SW 4.6 mph - N/A   Overcast
8:55 AM 37.6 °F 29.6 °F 20.5 °F 50% 29.73 in 10.0 mi South 12.7 mph 23.0 mph N/A   Overcast
9:15 AM 36.7 °F 26.9 °F 20.3 °F 52% 29.74 in 10.0 mi South 17.3 mph 25.3 mph N/A   Overcast
9:35 AM 37.8 °F 31.8 °F 21.2 °F 51% 29.74 in 10.0 mi South 8.1 mph 18.4 mph N/A   Overcast
9:55 AM 37.6 °F 29.6 °F 21.6 °F 52% 29.74 in 10.0 mi South 12.7 mph 20.7 mph N/A   Overcast
10:15 AM 37.4 °F 30.3 °F 23.0 °F 56% 29.75 in 10.0 mi South 10.4 mph 17.3 mph N/A   Overcast
10:35 AM 37.9 °F 32.1 °F 25.3 °F 60% 29.75 in 10.0 mi SW 8.1 mph - N/A   Overcast
10:55 AM 36.7 °F 28.4 °F 24.6 °F 62% 29.74 in 10.0 mi South 12.7 mph 17.3 mph N/A   Overcast
11:15 AM 35.2 °F 32.4 °F 27.0 °F 72% 29.73 in 10.0 mi WNW 3.5 mph - N/A   Overcast
11:35 AM 35.2 °F 32.4 °F 27.3 °F 73% 29.72 in 10.0 mi West 3.5 mph - N/A   Overcast
11:55 AM 35.6 °F 31.7 °F 27.0 °F 71% 29.70 in 10.0 mi SW 4.6 mph - N/A   Overcast
12:15 PM 36.5 °F 27.8 °F 24.3 °F 61% 29.68 in 10.0 mi South 13.8 mph 24.2 mph N/A   Overcast
12:35 PM 35.4 °F 25.6 °F 25.3 °F 67% 29.68 in 10.0 mi South 16.1 mph 23.0 mph N/A   Overcast
12:55 PM 36.7 °F 28.9 °F 24.6 °F 62% 29.67 in 10.0 mi South 11.5 mph 19.6 mph N/A   Overcast
1:15 PM 34.9 °F 27.7 °F 25.3 °F 68% 29.66 in 10.0 mi South 9.2 mph 20.7 mph N/A   Overcast
1:35 PM 35.1 °F 26.9 °F 25.5 °F 68% 29.65 in 10.0 mi SSE 11.5 mph 20.7 mph N/A   Overcast
1:55 PM 36.9 °F 33.1 °F 24.4 °F 61% 29.64 in 10.0 mi SSE 4.6 mph - N/A   Overcast
2:15 PM 37.8 °F 31.8 °F 23.7 °F 57% 29.63 in 10.0 mi SE 8.1 mph 17.3 mph N/A   Overcast
2:35 PM 38.3 °F 29.3 °F 22.6 °F 53% 29.62 in 10.0 mi South 16.1 mph 20.7 mph N/A   Mostly Cloudy
2:55 PM 38.3 °F 32.5 °F 22.8 °F 54% 29.61 in 10.0 mi South 8.1 mph 24.2 mph N/A   Overcast
3:15 PM 38.3 °F 31.4 °F 22.3 °F 53% 29.61 in 10.0 mi South 10.4 mph 16.1 mph N/A   Overcast
3:35 PM 38.3 °F 31.4 °F 23.0 °F 54% 29.61 in 10.0 mi South 10.4 mph 17.3 mph N/A   Overcast
3:55 PM 38.3 °F 33.9 °F 23.0 °F 54% 29.60 in 10.0 mi South 5.8 mph - N/A   Overcast
4:15 PM 38.3 °F 34.8 °F 22.8 °F 54% 29.61 in 10.0 mi West 4.6 mph - N/A   Overcast
4:35 PM 36.9 °F 34.3 °F 24.3 °F 60% 29.61 in 10.0 mi WNW 3.5 mph - N/A   Overcast
4:55 PM 37.8 °F - 21.7 °F 53% 29.61 in 10.0 mi Calm Calm - N/A   Overcast
5:15 PM 37.0 °F 31.0 °F 22.8 °F 56% 29.61 in 10.0 mi West 8.1 mph - N/A   Overcast
5:35 PM 36.9 °F - 22.8 °F 57% 29.61 in 10.0 mi Calm Calm - N/A   Overcast
5:55 PM 35.4 °F - 25.3 °F 67% 29.60 in 10.0 mi Calm Calm - N/A   Overcast
6:15 PM 36.1 °F 32.3 °F 23.9 °F 61% 29.61 in 10.0 mi SSE 4.6 mph - N/A   Overcast
6:35 PM 38.8 °F 30.8 °F 21.2 °F 49% 29.61 in 10.0 mi South 13.8 mph 18.4 mph N/A   Overcast
6:55 PM 38.8 °F 33.8 °F 21.9 °F 51% 29.61 in 10.0 mi SSW 6.9 mph 19.6 mph N/A   Overcast
7:15 PM 38.8 °F 34.6 °F 21.0 °F 49% 29.60 in 10.0 mi South 5.8 mph 16.1 mph N/A   Overcast
7:35 PM 39.7 °F 33.2 °F 20.7 °F 46% 29.60 in 10.0 mi SSW 10.4 mph 18.4 mph N/A   Overcast
7:55 PM 39.7 °F 33.7 °F 21.0 °F 47% 29.59 in 10.0 mi South 9.2 mph 16.1 mph N/A   Overcast
8:15 PM 39.7 °F 31.9 °F 22.3 °F 50% 29.58 in 10.0 mi South 13.8 mph 18.4 mph N/A   Overcast
8:35 PM 39.2 °F 33.6 °F 23.2 °F 53% 29.57 in 10.0 mi South 8.1 mph 24.2 mph N/A   Overcast
8:55 PM 38.8 °F 35.4 °F 23.9 °F 55% 29.56 in 10.0 mi SSE 4.6 mph - N/A   Overcast
9:15 PM 38.3 °F 30.1 °F 24.6 °F 58% 29.56 in 10.0 mi SE 13.8 mph 19.6 mph N/A   Overcast
9:35 PM 37.6 °F 35.1 °F 26.4 °F 64% 29.56 in 10.0 mi South 3.5 mph - N/A   Overcast
9:55 PM 38.7 °F 31.4 °F 25.2 °F 58% 29.56 in 10.0 mi South 11.5 mph 18.4 mph N/A   Overcast
10:15 PM 38.3 °F 29.7 °F 26.6 °F 63% 29.55 in 10.0 mi SSE 15.0 mph 18.4 mph N/A   Overcast
10:35 PM 38.7 °F 33.6 °F 27.0 °F 63% 29.54 in 10.0 mi SSE 6.9 mph 16.1 mph N/A   Overcast
10:55 PM 38.5 °F 30.7 °F 27.1 °F 64% 29.54 in 10.0 mi SSE 12.7 mph 24.2 mph N/A   Overcast
11:15 PM 38.3 °F 31.4 °F 27.3 °F 65% 29.54 in 10.0 mi South 10.4 mph 17.3 mph N/A   Overcast
11:35 PM 38.5 °F 30.3 °F 27.1 °F 64% 29.53 in 10.0 mi South 13.8 mph 24.2 mph N/A   Overcast
11:55 PM 38.7 °F 33.6 °F 27.0 °F 63% 29.53 in 10.0 mi South 6.9 mph 18.4 mph N/A   Overcast